createdAt,value
2022-12-11T00:00:03.512Z,1005.66
2022-12-11T00:01:03.505Z,1005.66
2022-12-11T00:02:03.557Z,1005.65
2022-12-11T00:03:03.514Z,1005.63
2022-12-11T00:04:03.534Z,1005.64
2022-12-11T00:05:03.445Z,1005.67
2022-12-11T00:06:03.469Z,1005.62
2022-12-11T00:07:03.475Z,1005.63
2022-12-11T00:08:04.154Z,1005.62
2022-12-11T00:09:03.481Z,1005.63
2022-12-11T00:10:03.387Z,1005.63
2022-12-11T00:11:03.374Z,1005.66
2022-12-11T00:12:03.366Z,1005.67
2022-12-11T00:13:03.357Z,1005.62
2022-12-11T00:14:03.372Z,1005.63
2022-12-11T00:15:03.393Z,1005.68
2022-12-11T00:16:03.310Z,1005.65
2022-12-11T00:17:03.353Z,1005.61
2022-12-11T00:18:03.284Z,1005.64
2022-12-11T00:19:03.280Z,1005.61
2022-12-11T00:20:03.301Z,1005.59
2022-12-11T00:21:03.410Z,1005.54
2022-12-11T00:22:03.370Z,1005.57
2022-12-11T00:23:03.228Z,1005.56
2022-12-11T00:24:03.211Z,1005.55
2022-12-11T00:25:03.331Z,1005.53
2022-12-11T00:26:03.219Z,1005.59
2022-12-11T00:27:03.194Z,1005.56
2022-12-11T00:28:03.946Z,1005.58
2022-12-11T00:29:03.221Z,1005.60
2022-12-11T00:30:03.168Z,1005.59
2022-12-11T00:31:03.153Z,1005.56
2022-12-11T00:32:03.177Z,1005.61
2022-12-11T00:33:03.107Z,1005.57
2022-12-11T00:34:03.119Z,1005.54
2022-12-11T00:35:03.270Z,1005.51
2022-12-11T00:36:03.222Z,1005.49
2022-12-11T00:37:03.102Z,1005.47
2022-12-11T00:38:03.097Z,1005.48
2022-12-11T00:39:03.091Z,1005.45
2022-12-11T00:40:03.100Z,1005.44
2022-12-11T00:41:03.063Z,1005.39
2022-12-11T00:42:03.017Z,1005.36
2022-12-11T00:43:03.023Z,1005.44
2022-12-11T00:44:02.955Z,1005.38
2022-12-11T00:45:02.957Z,1005.36
2022-12-11T00:46:02.990Z,1005.38
2022-12-11T00:47:03.926Z,1005.39
2022-12-11T00:48:02.903Z,1005.38
2022-12-11T00:49:03.971Z,1005.35
2022-12-11T00:50:02.902Z,1005.39
2022-12-11T00:51:02.882Z,1005.36
2022-12-11T00:52:02.927Z,1005.43
2022-12-11T00:53:02.867Z,1005.39
2022-12-11T00:54:02.833Z,1005.39
2022-12-11T00:55:03.300Z,1005.39
2022-12-11T00:56:02.890Z,1005.40
2022-12-11T00:57:02.801Z,1005.42
2022-12-11T00:58:02.781Z,1005.43
2022-12-11T00:59:03.863Z,1005.46
2022-12-11T01:00:03.947Z,1005.44
2022-12-11T01:01:02.796Z,1005.53
2022-12-11T01:02:02.795Z,1005.54
2022-12-11T01:03:02.845Z,1005.57
2022-12-11T01:04:02.814Z,1005.53
2022-12-11T01:05:02.719Z,1005.58
2022-12-11T01:06:02.712Z,1005.62
2022-12-11T01:07:02.755Z,1005.60
2022-12-11T01:08:02.745Z,1005.65
2022-12-11T01:09:02.652Z,1005.64
2022-12-11T01:10:02.654Z,1005.67
2022-12-11T01:11:03.405Z,1005.61
2022-12-11T01:12:02.652Z,1005.65
2022-12-11T01:13:03.371Z,1005.64
2022-12-11T01:14:02.609Z,1005.57
2022-12-11T01:15:02.581Z,1005.57
2022-12-11T01:16:02.554Z,1005.59
2022-12-11T01:17:02.684Z,1005.60
2022-12-11T01:18:02.523Z,1005.55
2022-12-11T01:19:02.509Z,1005.63
2022-12-11T01:20:02.545Z,1005.58
2022-12-11T01:21:02.531Z,1005.56
2022-12-11T01:22:02.486Z,1005.57
2022-12-11T01:23:02.488Z,1005.57
2022-12-11T01:24:02.507Z,1005.54
2022-12-11T01:25:02.442Z,1005.59
2022-12-11T01:26:02.591Z,1005.58
2022-12-11T01:27:02.487Z,1005.55
2022-12-11T01:28:02.515Z,1005.59
2022-12-11T01:29:02.383Z,1005.59
2022-12-11T01:30:02.390Z,1005.63
2022-12-11T01:31:02.394Z,1005.62
2022-12-11T01:32:02.357Z,1005.63
2022-12-11T01:33:02.434Z,1005.67
2022-12-11T01:34:02.725Z,1005.64
2022-12-11T01:35:02.476Z,1005.66
2022-12-11T01:36:02.336Z,1005.67
2022-12-11T01:37:02.309Z,1005.64
2022-12-11T01:38:02.656Z,1005.59
2022-12-11T01:39:02.415Z,1005.59
2022-12-11T01:40:02.252Z,1005.59
2022-12-11T01:41:08.927Z,1005.60
2022-12-11T01:42:02.264Z,1005.53
2022-12-11T01:43:02.240Z,1005.55
2022-12-11T01:44:02.216Z,1005.55
2022-12-11T01:45:02.241Z,1005.57
2022-12-11T01:46:02.566Z,1005.55
2022-12-11T01:47:02.161Z,1005.54
2022-12-11T01:48:02.155Z,1005.57
2022-12-11T01:49:02.176Z,1005.61
2022-12-11T01:50:03.241Z,1005.62
2022-12-11T01:51:02.128Z,1005.59
2022-12-11T01:52:02.231Z,1005.61
2022-12-11T01:53:02.095Z,1005.62
2022-12-11T01:54:02.118Z,1005.64
2022-12-11T01:55:02.139Z,1005.63
2022-12-11T01:56:02.441Z,1005.57
2022-12-11T01:57:02.050Z,1005.58
2022-12-11T01:58:02.547Z,1005.65
2022-12-11T01:59:02.075Z,1005.59
2022-12-11T02:00:02.037Z,1005.61
2022-12-11T02:01:02.080Z,1005.60
2022-12-11T02:02:02.046Z,1005.59
2022-12-11T02:03:01.982Z,1005.57
2022-12-11T02:04:02.236Z,1005.59
2022-12-11T02:05:02.826Z,1005.53
2022-12-11T02:06:01.955Z,1005.52
2022-12-11T02:07:02.906Z,1005.50
2022-12-11T02:08:02.182Z,1005.52
2022-12-11T02:09:01.926Z,1005.49
2022-12-11T02:10:01.947Z,1005.52
2022-12-11T02:11:02.763Z,1005.54
2022-12-11T02:12:01.891Z,1005.51
2022-12-11T02:13:01.855Z,1005.53
2022-12-11T02:14:01.837Z,1005.55
2022-12-11T02:15:01.829Z,1005.58
2022-12-11T02:16:01.962Z,1005.60
2022-12-11T02:17:01.803Z,1005.62
2022-12-11T02:18:01.804Z,1005.58
2022-12-11T02:19:01.834Z,1005.63
2022-12-11T02:20:02.930Z,1005.63
2022-12-11T02:21:01.835Z,1005.61
2022-12-11T02:22:01.746Z,1005.66
2022-12-11T02:23:01.798Z,1005.68
2022-12-11T02:24:01.707Z,1005.68
2022-12-11T02:25:02.340Z,1005.63
2022-12-11T02:26:01.858Z,1005.61
2022-12-11T02:27:01.744Z,1005.65
2022-12-11T02:28:01.748Z,1005.63
2022-12-11T02:29:01.809Z,1005.64
2022-12-11T02:30:02.587Z,1005.61
2022-12-11T02:31:01.985Z,1005.64
2022-12-11T02:32:01.653Z,1005.61
2022-12-11T02:33:01.653Z,1005.65
2022-12-11T02:34:01.619Z,1005.64
2022-12-11T02:35:01.566Z,1005.66
2022-12-11T02:36:01.643Z,1005.67
2022-12-11T02:37:02.019Z,1005.65
2022-12-11T02:38:01.568Z,1005.68
2022-12-11T02:39:01.539Z,1005.68
2022-12-11T02:40:01.499Z,1005.66
2022-12-11T02:41:01.578Z,1005.64
2022-12-11T02:42:02.348Z,1005.64
2022-12-11T02:43:01.515Z,1005.66
2022-12-11T02:44:01.527Z,1005.62
2022-12-11T02:45:01.687Z,1005.62
2022-12-11T02:46:01.522Z,1005.58
2022-12-11T02:47:01.439Z,1005.57
2022-12-11T02:48:01.452Z,1005.57
2022-12-11T02:49:01.437Z,1005.54
2022-12-11T02:50:01.404Z,1005.57
2022-12-11T02:51:01.378Z,1005.57
2022-12-11T02:52:01.387Z,1005.59
2022-12-11T02:53:01.644Z,1005.63
2022-12-11T02:54:01.346Z,1005.57
2022-12-11T02:55:01.546Z,1005.64
2022-12-11T02:56:01.341Z,1005.56
2022-12-11T02:57:01.299Z,1005.57
2022-12-11T02:58:01.303Z,1005.59
2022-12-11T02:59:01.268Z,1005.57
2022-12-11T03:00:01.298Z,1005.54
2022-12-11T03:01:01.498Z,1005.54
2022-12-11T03:02:01.339Z,1005.58
2022-12-11T03:03:01.246Z,1005.54
2022-12-11T03:04:01.199Z,1005.55
2022-12-11T03:05:01.397Z,1005.55
2022-12-11T03:06:01.198Z,1005.56
2022-12-11T03:07:01.997Z,1005.57
2022-12-11T03:08:01.228Z,1005.56
2022-12-11T03:09:01.151Z,1005.59
2022-12-11T03:10:01.133Z,1005.56
2022-12-11T03:11:01.651Z,1005.54
2022-12-11T03:12:01.132Z,1005.55
2022-12-11T03:13:01.096Z,1005.57
2022-12-11T03:14:02.549Z,1005.52
2022-12-11T03:15:01.408Z,1005.52
2022-12-11T03:16:01.156Z,1005.52
2022-12-11T03:17:01.087Z,1005.54
2022-12-11T03:18:01.597Z,1005.54
2022-12-11T03:19:01.871Z,1005.49
2022-12-11T03:20:01.039Z,1005.51
2022-12-11T03:21:00.991Z,1005.51
2022-12-11T03:22:01.061Z,1005.50
2022-12-11T03:23:00.961Z,1005.50
2022-12-11T03:24:00.950Z,1005.51
2022-12-11T03:25:00.936Z,1005.51
2022-12-11T03:26:00.952Z,1005.50
2022-12-11T03:27:04.459Z,1005.49
2022-12-11T03:28:00.901Z,1005.47
2022-12-11T03:29:00.898Z,1005.48
2022-12-11T03:30:00.947Z,1005.46
2022-12-11T03:31:00.907Z,1005.52
2022-12-11T03:32:00.960Z,1005.50
2022-12-11T03:33:00.873Z,1005.52
2022-12-11T03:34:00.826Z,1005.44
2022-12-11T03:35:01.071Z,1005.50
2022-12-11T03:36:00.839Z,1005.46
2022-12-11T03:37:00.818Z,1005.44
2022-12-11T03:38:01.578Z,1005.40
2022-12-11T03:39:00.951Z,1005.41
2022-12-11T03:40:00.771Z,1005.38
2022-12-11T03:41:00.800Z,1005.47
2022-12-11T03:42:00.839Z,1005.44
2022-12-11T03:43:00.747Z,1005.43
2022-12-11T03:44:00.753Z,1005.41
2022-12-11T03:45:01.657Z,1005.44
2022-12-11T03:46:00.749Z,1005.38
2022-12-11T03:47:00.743Z,1005.42
2022-12-11T03:48:00.763Z,1005.39
2022-12-11T03:49:00.664Z,1005.43
2022-12-11T03:50:00.655Z,1005.39
2022-12-11T03:51:01.815Z,1005.38
2022-12-11T03:52:00.630Z,1005.42
2022-12-11T03:53:00.855Z,1005.40
2022-12-11T03:54:00.594Z,1005.42
2022-12-11T03:55:00.602Z,1005.40
2022-12-11T03:56:00.541Z,1005.41
2022-12-11T03:57:00.590Z,1005.40
2022-12-11T03:58:01.482Z,1005.33
2022-12-11T03:59:00.531Z,1005.37
2022-12-11T04:00:01.174Z,1005.33
2022-12-11T04:01:00.487Z,1005.31
2022-12-11T04:02:00.550Z,1005.31
2022-12-11T04:03:00.523Z,1005.34
2022-12-11T04:04:00.519Z,1005.32
2022-12-11T04:05:00.461Z,1005.34
2022-12-11T04:06:00.500Z,1005.32
2022-12-11T04:07:00.414Z,1005.36
2022-12-11T04:08:00.510Z,1005.35
2022-12-11T04:09:01.444Z,1005.39
2022-12-11T04:10:00.782Z,1005.38
2022-12-11T04:11:01.484Z,1005.39
2022-12-11T04:12:00.392Z,1005.41
2022-12-11T04:13:00.910Z,1005.35
2022-12-11T04:14:01.141Z,1005.34
2022-12-11T04:15:00.374Z,1005.35
2022-12-11T04:16:00.329Z,1005.38
2022-12-11T04:17:00.304Z,1005.38
2022-12-11T04:18:00.290Z,1005.37
2022-12-11T04:19:00.282Z,1005.40
2022-12-11T04:20:00.274Z,1005.39
2022-12-11T04:21:00.242Z,1005.36
2022-12-11T04:22:00.258Z,1005.34
2022-12-11T04:23:01.378Z,1005.36
2022-12-11T04:24:00.344Z,1005.37
2022-12-11T04:25:01.188Z,1005.33
2022-12-11T04:26:00.245Z,1005.33
2022-12-11T04:27:00.185Z,1005.35
2022-12-11T04:28:00.147Z,1005.37
2022-12-11T04:29:00.145Z,1005.39
2022-12-11T04:30:00.193Z,1005.41
2022-12-11T04:31:00.136Z,1005.42
2022-12-11T04:32:00.115Z,1005.41
2022-12-11T04:33:00.118Z,1005.40
2022-12-11T04:34:00.103Z,1005.38
2022-12-11T04:35:00.086Z,1005.38
2022-12-11T04:36:01.132Z,1005.41
2022-12-11T04:37:00.033Z,1005.41
2022-12-11T04:38:00.058Z,1005.40
2022-12-11T04:39:00.035Z,1005.41
2022-12-11T04:40:00.150Z,1005.41
2022-12-11T04:41:00.638Z,1005.42
2022-12-11T04:41:59.983Z,1005.38
2022-12-11T04:42:59.982Z,1005.38
2022-12-11T04:43:59.955Z,1005.37
2022-12-11T04:45:00.786Z,1005.32
2022-12-11T04:46:01.237Z,1005.32
2022-12-11T04:46:59.963Z,1005.30
2022-12-11T04:47:59.935Z,1005.31
2022-12-11T04:48:59.968Z,1005.31
2022-12-11T04:49:59.897Z,1005.33
2022-12-11T04:50:59.907Z,1005.34
2022-12-11T04:51:59.856Z,1005.37
2022-12-11T04:52:59.826Z,1005.33
2022-12-11T04:53:59.894Z,1005.33
2022-12-11T04:55:00.012Z,1005.31
2022-12-11T04:56:00.749Z,1005.34
2022-12-11T04:56:59.824Z,1005.32
2022-12-11T04:57:59.975Z,1005.35
2022-12-11T04:58:59.863Z,1005.34
2022-12-11T04:59:59.874Z,1005.35
2022-12-11T05:01:00.148Z,1005.34
2022-12-11T05:02:00.760Z,1005.35
2022-12-11T05:02:59.836Z,1005.36
2022-12-11T05:03:59.919Z,1005.33
2022-12-11T05:05:00.384Z,1005.30
2022-12-11T05:05:59.685Z,1005.34
2022-12-11T05:06:59.986Z,1005.37
2022-12-11T05:07:59.695Z,1005.34
2022-12-11T05:08:59.695Z,1005.31
2022-12-11T05:09:59.619Z,1005.27
2022-12-11T05:10:59.624Z,1005.30
2022-12-11T05:11:59.596Z,1005.27
2022-12-11T05:12:59.610Z,1005.27
2022-12-11T05:14:00.556Z,1005.30
2022-12-11T05:15:00.458Z,1005.33
2022-12-11T05:15:59.780Z,1005.30
2022-12-11T05:16:59.583Z,1005.27
2022-12-11T05:18:00.688Z,1005.30
2022-12-11T05:18:59.548Z,1005.29
2022-12-11T05:19:59.505Z,1005.28
2022-12-11T05:20:59.535Z,1005.20
2022-12-11T05:21:59.890Z,1005.20
2022-12-11T05:22:59.464Z,1005.23
2022-12-11T05:23:59.437Z,1005.24
2022-12-11T05:24:59.591Z,1005.22
2022-12-11T05:25:59.416Z,1005.26
2022-12-11T05:26:59.920Z,1005.21
2022-12-11T05:27:59.396Z,1005.24
2022-12-11T05:28:59.377Z,1005.24
2022-12-11T05:29:59.832Z,1005.24
2022-12-11T05:31:00.475Z,1005.24
2022-12-11T05:31:59.430Z,1005.24
2022-12-11T05:32:59.427Z,1005.22
2022-12-11T05:33:59.325Z,1005.22
2022-12-11T05:34:59.308Z,1005.16
2022-12-11T05:36:00.255Z,1005.17
2022-12-11T05:37:00.275Z,1005.17
2022-12-11T05:37:59.270Z,1005.14
2022-12-11T05:38:59.319Z,1005.15
2022-12-11T05:40:00.125Z,1005.16
2022-12-11T05:40:59.266Z,1005.13
2022-12-11T05:41:59.247Z,1005.13
2022-12-11T05:42:59.300Z,1005.08
2022-12-11T05:43:59.229Z,1005.07
2022-12-11T05:44:59.319Z,1005.11
2022-12-11T05:45:59.179Z,1005.13
2022-12-11T05:46:59.243Z,1005.13
2022-12-11T05:47:59.609Z,1005.14
2022-12-11T05:48:59.184Z,1005.15
2022-12-11T05:49:59.155Z,1005.14
2022-12-11T05:50:59.134Z,1005.16
2022-12-11T05:51:59.498Z,1005.20
2022-12-11T05:52:59.111Z,1005.20
2022-12-11T05:53:59.071Z,1005.19
2022-12-11T05:54:59.091Z,1005.22
2022-12-11T05:55:59.621Z,1005.23
2022-12-11T05:57:00.011Z,1005.21
2022-12-11T05:57:59.049Z,1005.22
2022-12-11T05:58:59.021Z,1005.23
2022-12-11T05:59:59.182Z,1005.23
2022-12-11T06:00:59.134Z,1005.26
2022-12-11T06:01:59.045Z,1005.25
2022-12-11T06:02:59.196Z,1005.26
2022-12-11T06:03:58.998Z,1005.18
2022-12-11T06:04:59.760Z,1005.13
2022-12-11T06:05:58.986Z,1005.14
2022-12-11T06:06:58.947Z,1005.13
2022-12-11T06:07:58.979Z,1005.12
2022-12-11T06:08:58.949Z,1005.14
2022-12-11T06:09:58.861Z,1005.12
2022-12-11T06:10:58.911Z,1005.15
2022-12-11T06:11:58.871Z,1005.13
2022-12-11T06:12:58.830Z,1005.07
2022-12-11T06:13:58.841Z,1005.12
2022-12-11T06:14:58.830Z,1005.10
2022-12-11T06:15:58.880Z,1005.11
2022-12-11T06:16:58.793Z,1005.10
2022-12-11T06:17:58.790Z,1005.11
2022-12-11T06:18:58.865Z,1005.11
2022-12-11T06:19:58.751Z,1005.11
2022-12-11T06:20:58.824Z,1005.05
2022-12-11T06:21:58.744Z,1005.08
2022-12-11T06:22:59.145Z,1005.07
2022-12-11T06:23:58.701Z,1005.09
2022-12-11T06:24:58.773Z,1005.10
2022-12-11T06:25:58.738Z,1005.09
2022-12-11T06:26:58.676Z,1005.07
2022-12-11T06:27:58.649Z,1005.08
2022-12-11T06:28:58.638Z,1005.07
2022-12-11T06:29:58.683Z,1005.05
2022-12-11T06:30:58.683Z,1005.04
2022-12-11T06:31:58.656Z,1005.07
2022-12-11T06:32:58.591Z,1005.06
2022-12-11T06:33:58.572Z,1005.09
2022-12-11T06:34:58.644Z,1005.05
2022-12-11T06:35:58.582Z,1005.05
2022-12-11T06:36:58.574Z,1005.09
2022-12-11T06:37:58.573Z,1005.06
2022-12-11T06:38:58.558Z,1005.03
2022-12-11T06:39:58.512Z,1005.06
2022-12-11T06:40:58.523Z,1005.06
2022-12-11T06:41:58.473Z,1005.07
2022-12-11T06:42:58.592Z,1005.08
2022-12-11T06:43:58.527Z,1005.06
2022-12-11T06:44:58.480Z,1005.06
2022-12-11T06:46:03.565Z,1005.07
2022-12-11T06:46:59.422Z,1005.09
2022-12-11T06:47:58.420Z,1005.03
2022-12-11T06:48:58.402Z,1005.08
2022-12-11T06:49:58.402Z,1005.10
2022-12-11T06:50:59.434Z,1005.11
2022-12-11T06:51:58.405Z,1005.10
2022-12-11T06:52:58.424Z,1005.10
2022-12-11T06:53:58.320Z,1005.12
2022-12-11T06:54:58.322Z,1005.13
2022-12-11T06:55:58.341Z,1005.15
2022-12-11T06:56:58.375Z,1005.14
2022-12-11T06:57:58.322Z,1005.17
2022-12-11T06:59:01.652Z,1005.17
2022-12-11T06:59:59.290Z,1005.19
2022-12-11T07:00:58.354Z,1005.16
2022-12-11T07:01:58.300Z,1005.18
2022-12-11T07:02:58.254Z,1005.16
2022-12-11T07:03:58.205Z,1005.16
2022-12-11T07:04:58.186Z,1005.11
2022-12-11T07:05:58.172Z,1005.15
2022-12-11T07:06:58.224Z,1005.13
2022-12-11T07:07:58.200Z,1005.13
2022-12-11T07:08:58.232Z,1005.13
2022-12-11T07:10:02.727Z,1005.18
2022-12-11T07:10:59.156Z,1005.16
2022-12-11T07:11:58.119Z,1005.22
2022-12-11T07:12:58.084Z,1005.25
2022-12-11T07:13:58.109Z,1005.22
2022-12-11T07:14:58.078Z,1005.23
2022-12-11T07:15:58.116Z,1005.20
2022-12-11T07:16:58.070Z,1005.24
2022-12-11T07:17:58.062Z,1005.22
2022-12-11T07:18:58.005Z,1005.26
2022-12-11T07:19:57.994Z,1005.30
2022-12-11T07:20:57.992Z,1005.38
2022-12-11T07:21:59.040Z,1005.39
2022-12-11T07:22:58.035Z,1005.36
2022-12-11T07:23:57.953Z,1005.31
2022-12-11T07:24:57.943Z,1005.40
2022-12-11T07:25:57.942Z,1005.38
2022-12-11T07:26:57.947Z,1005.39
2022-12-11T07:27:57.963Z,1005.38
2022-12-11T07:28:57.884Z,1005.37
2022-12-11T07:29:57.873Z,1005.37
2022-12-11T07:30:57.879Z,1005.42
2022-12-11T07:31:58.063Z,1005.37
2022-12-11T07:32:57.893Z,1005.41
2022-12-11T07:33:57.856Z,1005.42
2022-12-11T07:34:57.965Z,1005.40
2022-12-11T07:35:57.834Z,1005.39
2022-12-11T07:36:57.827Z,1005.39
2022-12-11T07:37:57.802Z,1005.39
2022-12-11T07:38:57.849Z,1005.40
2022-12-11T07:39:57.777Z,1005.40
2022-12-11T07:40:57.770Z,1005.42
2022-12-11T07:41:57.714Z,1005.40
2022-12-11T07:42:57.757Z,1005.36
2022-12-11T07:43:57.702Z,1005.38
2022-12-11T07:44:57.745Z,1005.36
2022-12-11T07:45:57.738Z,1005.32
2022-12-11T07:46:57.675Z,1005.33
2022-12-11T07:47:57.748Z,1005.36
2022-12-11T07:48:57.649Z,1005.30
2022-12-11T07:49:57.656Z,1005.32
2022-12-11T07:50:57.618Z,1005.35
2022-12-11T07:51:57.583Z,1005.31
2022-12-11T07:52:57.572Z,1005.29
2022-12-11T07:53:57.593Z,1005.28
2022-12-11T07:54:57.617Z,1005.32
2022-12-11T07:55:57.586Z,1005.27
2022-12-11T07:56:57.619Z,1005.26
2022-12-11T07:57:57.526Z,1005.26
2022-12-11T07:58:57.526Z,1005.24
2022-12-11T07:59:57.626Z,1005.24
2022-12-11T08:00:57.504Z,1005.24
2022-12-11T08:01:57.509Z,1005.22
2022-12-11T08:02:57.490Z,1005.21
2022-12-11T08:03:57.433Z,1005.26
2022-12-11T08:04:57.515Z,1005.20
2022-12-11T08:05:57.485Z,1005.16
2022-12-11T08:06:57.547Z,1005.19
2022-12-11T08:07:57.513Z,1005.23
2022-12-11T08:08:57.401Z,1005.21
2022-12-11T08:09:57.429Z,1005.21
2022-12-11T08:10:58.049Z,1005.22
2022-12-11T08:11:57.420Z,1005.16
2022-12-11T08:12:57.415Z,1005.19
2022-12-11T08:13:57.506Z,1005.20
2022-12-11T08:14:58.033Z,1005.19
2022-12-11T08:15:57.331Z,1005.13
2022-12-11T08:16:58.065Z,1005.12
2022-12-11T08:17:58.256Z,1005.13
2022-12-11T08:18:57.290Z,1005.08
2022-12-11T08:19:57.327Z,1005.10
2022-12-11T08:20:57.266Z,1005.05
2022-12-11T08:21:57.236Z,1005.10
2022-12-11T08:22:59.272Z,1005.07
2022-12-11T08:23:58.209Z,1005.07
2022-12-11T08:24:57.217Z,1005.05
2022-12-11T08:25:57.231Z,1005.08
2022-12-11T08:26:57.386Z,1005.09
2022-12-11T08:27:57.180Z,1005.10
2022-12-11T08:28:57.445Z,1005.09
2022-12-11T08:29:57.470Z,1005.08
2022-12-11T08:30:57.243Z,1005.10
2022-12-11T08:31:58.058Z,1005.10
2022-12-11T08:32:57.644Z,1005.07
2022-12-11T08:33:57.741Z,1005.02
2022-12-11T08:34:57.769Z,1005.03
2022-12-11T08:35:57.149Z,1005.03
2022-12-11T08:36:57.030Z,1005.03
2022-12-11T08:37:57.107Z,1005.11
2022-12-11T08:38:57.007Z,1005.05
2022-12-11T08:39:57.010Z,1005.03
2022-12-11T08:40:57.038Z,1004.99
2022-12-11T08:41:56.970Z,1005.02
2022-12-11T08:42:56.977Z,1005.03
2022-12-11T08:43:56.939Z,1005.04
2022-12-11T08:44:56.931Z,1005.00
2022-12-11T08:45:57.056Z,1005.04
2022-12-11T08:46:56.916Z,1005.02
2022-12-11T08:47:56.891Z,1005.00
2022-12-11T08:48:56.986Z,1004.98
2022-12-11T08:49:57.759Z,1005.02
2022-12-11T08:50:56.942Z,1005.01
2022-12-11T08:51:56.919Z,1005.03
2022-12-11T08:52:56.863Z,1005.03
2022-12-11T08:53:56.824Z,1005.03
2022-12-11T08:54:56.808Z,1005.06
2022-12-11T08:55:56.812Z,1005.03
2022-12-11T08:56:58.273Z,1005.06
2022-12-11T08:57:56.812Z,1005.10
2022-12-11T08:58:56.821Z,1005.08
2022-12-11T08:59:56.762Z,1005.10
2022-12-11T09:00:56.826Z,1005.09
2022-12-11T09:01:56.735Z,1005.11
2022-12-11T09:02:56.802Z,1005.09
2022-12-11T09:03:56.746Z,1005.10
2022-12-11T09:04:56.757Z,1005.11
2022-12-11T09:05:56.682Z,1005.13
2022-12-11T09:06:56.663Z,1005.10
2022-12-11T09:07:56.760Z,1005.14
2022-12-11T09:08:56.639Z,1005.10
2022-12-11T09:09:56.630Z,1005.15
2022-12-11T09:10:56.669Z,1005.14
2022-12-11T09:11:56.593Z,1005.11
2022-12-11T09:12:56.616Z,1005.18
2022-12-11T09:13:57.061Z,1005.11
2022-12-11T09:14:56.560Z,1005.13
2022-12-11T09:15:57.849Z,1005.20
2022-12-11T09:16:56.551Z,1005.16
2022-12-11T09:17:56.548Z,1005.18
2022-12-11T09:18:56.507Z,1005.18
2022-12-11T09:19:56.490Z,1005.16
2022-12-11T09:20:56.509Z,1005.13
2022-12-11T09:21:56.527Z,1005.18
2022-12-11T09:22:56.479Z,1005.17
2022-12-11T09:23:56.483Z,1005.17
2022-12-11T09:24:56.451Z,1005.16
2022-12-11T09:25:56.544Z,1005.15
2022-12-11T09:26:56.442Z,1005.14
2022-12-11T09:27:56.429Z,1005.16
2022-12-11T09:28:56.535Z,1005.09
2022-12-11T09:29:56.430Z,1005.11
2022-12-11T09:30:56.383Z,1005.11
2022-12-11T09:31:56.342Z,1005.05
2022-12-11T09:32:56.403Z,1005.07
2022-12-11T09:33:56.367Z,1005.03
2022-12-11T09:34:56.329Z,1004.97
2022-12-11T09:35:56.317Z,1005.03
2022-12-11T09:36:56.293Z,1004.99
2022-12-11T09:37:56.267Z,1004.99
2022-12-11T09:38:56.249Z,1004.99
2022-12-11T09:39:56.263Z,1004.98
2022-12-11T09:40:56.312Z,1004.94
2022-12-11T09:41:56.257Z,1004.92
2022-12-11T09:42:56.330Z,1004.93
2022-12-11T09:43:56.211Z,1004.93
2022-12-11T09:44:56.221Z,1004.91
2022-12-11T09:45:56.316Z,1004.96
2022-12-11T09:46:56.245Z,1004.94
2022-12-11T09:47:56.192Z,1004.98
2022-12-11T09:48:56.159Z,1004.98
2022-12-11T09:49:56.163Z,1005.02
2022-12-11T09:50:56.116Z,1005.02
2022-12-11T09:51:56.124Z,1005.02
2022-12-11T09:52:56.094Z,1005.00
2022-12-11T09:53:56.398Z,1005.03
2022-12-11T09:54:56.293Z,1005.05
2022-12-11T09:55:56.093Z,1005.00
2022-12-11T09:56:56.070Z,1005.00
2022-12-11T09:57:56.175Z,1004.98
2022-12-11T09:58:56.022Z,1005.00
2022-12-11T10:00:01.089Z,1005.00
2022-12-11T10:00:56.991Z,1005.03
2022-12-11T10:01:56.024Z,1004.96
2022-12-11T10:02:56.028Z,1004.95
2022-12-11T10:03:55.972Z,1004.96
2022-12-11T10:04:56.364Z,1004.93
2022-12-11T10:06:01.031Z,1004.92
2022-12-11T10:06:57.466Z,1004.93
2022-12-11T10:07:55.945Z,1004.86
2022-12-11T10:08:55.901Z,1004.88
2022-12-11T10:09:55.876Z,1004.89
2022-12-11T10:10:55.896Z,1004.87
2022-12-11T10:11:56.930Z,1004.85
2022-12-11T10:12:55.852Z,1004.82
2022-12-11T10:13:55.810Z,1004.82
2022-12-11T10:14:55.865Z,1004.78
2022-12-11T10:15:55.833Z,1004.80
2022-12-11T10:16:55.762Z,1004.77
2022-12-11T10:17:59.881Z,1004.81
2022-12-11T10:18:56.784Z,1004.81
2022-12-11T10:19:56.785Z,1004.85
2022-12-11T10:20:55.751Z,1004.84
2022-12-11T10:21:55.741Z,1004.81
2022-12-11T10:22:55.770Z,1004.81
2022-12-11T10:23:55.706Z,1004.80
2022-12-11T10:25:12.163Z,1004.83
2022-12-11T10:25:56.843Z,1004.81
2022-12-11T10:26:55.684Z,1004.82
2022-12-11T10:27:55.657Z,1004.79
2022-12-11T10:28:55.642Z,1004.74
2022-12-11T10:29:55.673Z,1004.72
2022-12-11T10:30:55.637Z,1004.76
2022-12-11T10:31:55.667Z,1004.70
2022-12-11T10:32:55.923Z,1004.72
2022-12-11T10:33:55.597Z,1004.69
2022-12-11T10:34:55.553Z,1004.66
2022-12-11T10:35:55.587Z,1004.66
2022-12-11T10:37:00.273Z,1004.67
2022-12-11T10:37:55.536Z,1004.66
2022-12-11T10:38:55.545Z,1004.67
2022-12-11T10:39:55.513Z,1004.73
2022-12-11T10:40:55.479Z,1004.70
2022-12-11T10:41:55.525Z,1004.66
2022-12-11T10:42:55.492Z,1004.69
2022-12-11T10:43:55.487Z,1004.66
2022-12-11T10:44:55.485Z,1004.63
2022-12-11T10:45:55.518Z,1004.64
2022-12-11T10:46:55.419Z,1004.62
2022-12-11T10:47:55.395Z,1004.62
2022-12-11T10:48:55.504Z,1004.60
2022-12-11T10:49:55.384Z,1004.66
2022-12-11T10:50:55.396Z,1004.58
2022-12-11T10:51:55.405Z,1004.62
2022-12-11T10:52:55.374Z,1004.63
2022-12-11T10:53:55.397Z,1004.64
2022-12-11T10:54:55.310Z,1004.63
2022-12-11T10:55:55.370Z,1004.65
2022-12-11T10:56:55.347Z,1004.64
2022-12-11T10:57:56.279Z,1004.66
2022-12-11T10:58:55.254Z,1004.67
2022-12-11T10:59:55.335Z,1004.61
2022-12-11T11:00:55.230Z,1004.67
2022-12-11T11:01:55.318Z,1004.67
2022-12-11T11:02:55.249Z,1004.68
2022-12-11T11:03:55.198Z,1004.66
2022-12-11T11:04:55.188Z,1004.63
2022-12-11T11:05:55.171Z,1004.65
2022-12-11T11:06:55.238Z,1004.63
2022-12-11T11:07:55.208Z,1004.62
2022-12-11T11:08:55.163Z,1004.67
2022-12-11T11:09:55.183Z,1004.68
2022-12-11T11:10:56.004Z,1004.70
2022-12-11T11:11:55.095Z,1004.67
2022-12-11T11:12:55.208Z,1004.65
2022-12-11T11:13:55.076Z,1004.67
2022-12-11T11:14:55.097Z,1004.62
2022-12-11T11:15:55.094Z,1004.63
2022-12-11T11:16:55.085Z,1004.65
2022-12-11T11:17:56.112Z,1004.66
2022-12-11T11:18:55.051Z,1004.67
2022-12-11T11:19:55.016Z,1004.63
2022-12-11T11:20:55.016Z,1004.63
2022-12-11T11:21:55.040Z,1004.59
2022-12-11T11:22:55.066Z,1004.60
2022-12-11T11:23:54.954Z,1004.63
2022-12-11T11:24:55.774Z,1004.59
2022-12-11T11:25:55.023Z,1004.64
2022-12-11T11:27:24.426Z,1004.60
2022-12-11T11:27:55.964Z,1004.59
2022-12-11T11:28:54.959Z,1004.61
2022-12-11T11:29:54.907Z,1004.61
2022-12-11T11:30:54.918Z,1004.64
2022-12-11T11:31:54.916Z,1004.60
2022-12-11T11:32:54.864Z,1004.59
2022-12-11T11:33:54.839Z,1004.56
2022-12-11T11:34:54.839Z,1004.53
2022-12-11T11:35:54.905Z,1004.51
2022-12-11T11:36:54.825Z,1004.52
2022-12-11T11:37:54.790Z,1004.56
2022-12-11T11:38:54.826Z,1004.48
2022-12-11T11:39:54.805Z,1004.52
2022-12-11T11:40:58.163Z,1004.43
2022-12-11T11:41:55.727Z,1004.50
2022-12-11T11:42:54.756Z,1004.46
2022-12-11T11:43:54.738Z,1004.47
2022-12-11T11:44:54.703Z,1004.46
2022-12-11T11:45:54.692Z,1004.45
2022-12-11T11:46:54.719Z,1004.45
2022-12-11T11:47:54.695Z,1004.40
2022-12-11T11:48:56.107Z,1004.42
2022-12-11T11:49:54.623Z,1004.46
2022-12-11T11:50:54.635Z,1004.43
2022-12-11T11:51:54.620Z,1004.47
2022-12-11T11:52:54.637Z,1004.49
2022-12-11T11:53:54.615Z,1004.49
2022-12-11T11:54:54.854Z,1004.43
2022-12-11T11:55:54.539Z,1004.44
2022-12-11T11:56:54.526Z,1004.45
2022-12-11T11:57:54.578Z,1004.46
2022-12-11T11:58:54.659Z,1004.43
2022-12-11T11:59:54.567Z,1004.44
2022-12-11T12:00:54.556Z,1004.47
2022-12-11T12:01:54.500Z,1004.44
2022-12-11T12:02:54.636Z,1004.39
2022-12-11T12:03:54.516Z,1004.40
2022-12-11T12:04:54.478Z,1004.42